createdAt,value
2022-11-07T00:00:42.913Z,7.1
2022-11-07T00:06:11.296Z,7.1
2022-11-07T00:11:58.752Z,7.1
2022-11-07T00:17:18.337Z,7
2022-11-07T00:22:58.916Z,6.9
2022-11-07T00:28:43.409Z,6.9
2022-11-07T00:33:57.864Z,6.8
2022-11-07T00:39:47.606Z,6.7
2022-11-07T00:45:08.727Z,6.5
2022-11-07T00:50:46.370Z,6.6
2022-11-07T00:56:07.587Z,6.5
2022-11-07T01:01:40.675Z,6.3
2022-11-07T01:07:09.410Z,6.2
2022-11-07T01:13:02.150Z,6.2
2022-11-07T01:18:34.666Z,6.3
2022-11-07T01:23:44.612Z,6.2
2022-11-07T01:29:20.380Z,6.4
2022-11-07T01:35:00.537Z,6.3
2022-11-07T01:40:30.398Z,6.1
2022-11-07T01:46:01.301Z,6.1
2022-11-07T01:51:28.741Z,5.8
2022-11-07T01:57:10.889Z,6.2
2022-11-07T02:02:28.078Z,6.1
2022-11-07T02:07:58.809Z,6.1
2022-11-07T02:13:42.800Z,5.6
2022-11-07T02:19:07.700Z,5.7
2022-11-07T02:24:51.771Z,5.2
2022-11-07T02:30:14.713Z,5.3
2022-11-07T02:35:42.459Z,5.5
2022-11-07T02:41:12.087Z,5.6
2022-11-07T02:46:48.537Z,5.2
2022-11-07T02:52:32.038Z,5.1
2022-11-07T02:58:03.275Z,5.2
2022-11-07T03:03:23.611Z,5
2022-11-07T03:08:54.160Z,4.7
2022-11-07T03:14:34.247Z,4.9
2022-11-07T03:20:16.422Z,5.5
2022-11-07T03:25:56.343Z,5.1
2022-11-07T03:31:07.585Z,5.4
2022-11-07T03:36:44.797Z,5.1
2022-11-07T03:42:25.253Z,5
2022-11-07T03:47:57.605Z,4.8
2022-11-07T03:53:27.994Z,4.7
2022-11-07T03:59:10.091Z,4.7
2022-11-07T04:04:25.881Z,4.5
2022-11-07T04:10:05.214Z,4.6
2022-11-07T04:15:36.584Z,4.3
2022-11-07T04:20:53.310Z,4.1
2022-11-07T04:26:35.057Z,4.1
2022-11-07T04:32:21.658Z,4.5
2022-11-07T04:37:53.147Z,4.7
2022-11-07T04:43:01.648Z,4.8
2022-11-07T04:48:31.449Z,5.1
2022-11-07T04:54:06.715Z,4.4
2022-11-07T04:59:51.672Z,4
2022-11-07T05:05:16.421Z,4.2
2022-11-07T05:11:03.588Z,4.6
2022-11-07T05:16:25.369Z,4.4
2022-11-07T05:21:43.834Z,4.9
2022-11-07T05:27:14.993Z,5.3
2022-11-07T05:32:58.534Z,4.5
2022-11-07T05:38:45.893Z,3.5
2022-11-07T05:44:06.251Z,3.6
2022-11-07T05:49:32.407Z,3.5
2022-11-07T05:54:55.337Z,4
2022-11-07T06:00:46.259Z,4.3
2022-11-07T06:06:12.554Z,4.4
2022-11-07T06:11:35.341Z,4.9
2022-11-07T06:17:17.244Z,4.9
2022-11-07T06:23:01.938Z,4.3
2022-11-07T06:28:22.727Z,3.9
2022-11-07T06:33:52.748Z,3.8
2022-11-07T06:39:23.834Z,4
2022-11-07T06:45:03.518Z,4.1
2022-11-07T06:50:42.033Z,4.7
2022-11-07T06:56:03.958Z,4.5
2022-11-07T07:01:32.855Z,4.5
2022-11-07T07:06:58.023Z,4.9
2022-11-07T07:12:34.666Z,4.9
2022-11-07T07:18:19.218Z,5.2
2022-11-07T07:23:50.891Z,5.1
2022-11-07T07:29:01.073Z,5.7
2022-11-07T07:34:41.410Z,6.5
2022-11-07T07:40:16.341Z,6.9
2022-11-07T07:46:05.226Z,6.8
2022-11-07T07:51:30.563Z,6.5
2022-11-07T07:57:00.765Z,7.2
2022-11-07T08:02:36.913Z,7.1
2022-11-07T08:07:57.285Z,8.3
2022-11-07T08:13:46.815Z,8.7
2022-11-07T08:19:04.326Z,8.8
2022-11-07T08:24:40.378Z,8.5
2022-11-07T08:30:17.700Z,8.3
2022-11-07T08:35:43.459Z,8.6
2022-11-07T08:41:12.947Z,8.8
2022-11-07T08:46:57.473Z,9.3
2022-11-07T08:52:22.384Z,9.4
2022-11-07T08:58:07.008Z,9.6
2022-11-07T09:03:45.454Z,9.7
2022-11-07T09:08:57.274Z,10.5
2022-11-07T09:14:44.716Z,11
2022-11-07T09:20:03.845Z,11.2
2022-11-07T09:25:53.996Z,11.1
2022-11-07T09:31:11.499Z,11.5
2022-11-07T09:36:46.895Z,11.3
2022-11-07T09:42:32.372Z,11.5
2022-11-07T09:47:49.529Z,11.8
2022-11-07T09:53:43.796Z,12.2
2022-11-07T09:59:14.165Z,12.4
2022-11-07T10:04:37.653Z,12.8
2022-11-07T10:10:21.770Z,12.8
2022-11-07T10:15:38.284Z,12.7
2022-11-07T10:21:38.330Z,13.3
2022-11-07T10:26:57.210Z,13.2
2022-11-07T10:32:18.418Z,13.6
2022-11-07T10:38:11.100Z,13.7
2022-11-07T10:43:41.391Z,13.6
2022-11-07T10:49:14.436Z,13.9
2022-11-07T10:54:41.182Z,13.8
2022-11-07T11:00:09.915Z,13.8
2022-11-07T11:05:50.527Z,14
2022-11-07T11:11:33.007Z,14.2
2022-11-07T11:16:46.122Z,13.7
2022-11-07T11:22:39.788Z,13.9
2022-11-07T11:28:06.235Z,14.2
2022-11-07T11:33:29.716Z,14.7
2022-11-07T11:39:25.033Z,15.1
2022-11-07T11:44:50.408Z,15
2022-11-07T11:50:32.036Z,14.8
2022-11-07T11:56:08.215Z,15.1
2022-11-07T12:01:23.819Z,15.1
2022-11-07T12:07:09.789Z,14.8
2022-11-07T12:12:28.552Z,14.5
2022-11-07T12:18:01.530Z,14.7
2022-11-07T12:23:32.264Z,14.4
2022-11-07T12:29:12.951Z,14.3
2022-11-07T12:34:50.197Z,14.4
2022-11-07T12:40:37.012Z,14.9
2022-11-07T12:46:05.444Z,14.4
2022-11-07T12:51:40.489Z,15.2
2022-11-07T12:56:57.544Z,15.3
2022-11-07T13:02:38.619Z,15.2
2022-11-07T13:08:21.252Z,15.4
2022-11-07T13:13:57.416Z,15.9
2022-11-07T13:19:13.928Z,16
2022-11-07T13:24:53.835Z,15.9
2022-11-07T13:30:31.085Z,16.1
2022-11-07T13:36:24.882Z,15.6
2022-11-07T13:41:49.407Z,15.3
2022-11-07T13:47:12.051Z,15.9
2022-11-07T13:53:09.794Z,15.4
2022-11-07T13:58:29.875Z,15.5
2022-11-07T14:04:10.388Z,15.6
2022-11-07T14:09:47.729Z,15.3
2022-11-07T14:15:27.932Z,15.5
2022-11-07T14:21:06.442Z,15.4
2022-11-07T14:26:41.455Z,16.2
2022-11-07T14:32:07.316Z,15.7
2022-11-07T14:37:29.782Z,16
2022-11-07T14:42:55.933Z,16
2022-11-07T14:48:35.519Z,15.3
2022-11-07T14:54:27.707Z,15
2022-11-07T14:59:55.115Z,14.7
2022-11-07T15:05:17.626Z,14.2
2022-11-07T15:10:53.526Z,14
2022-11-07T15:16:31.291Z,14
2022-11-07T15:22:15.878Z,13.7
2022-11-07T15:27:40.115Z,13.5
2022-11-07T15:33:03.340Z,13.5
2022-11-07T15:38:49.195Z,13.6
2022-11-07T15:49:43.475Z,13.1
2022-11-07T15:55:09.129Z,12.8
2022-11-07T16:00:50.156Z,12.3
2022-11-07T16:06:29.111Z,12.1
2022-11-07T16:11:58.691Z,11.7
2022-11-07T16:17:30.374Z,11.4
2022-11-07T16:23:10.880Z,11.5
2022-11-07T16:28:47.759Z,11.5
2022-11-07T16:34:18.157Z,11.1
2022-11-07T16:39:30.393Z,11
2022-11-07T16:45:11.009Z,10.8
2022-11-07T16:50:47.408Z,10.8
2022-11-07T16:56:08.242Z,10.9
2022-11-07T17:02:01.325Z,10.6
2022-11-07T17:07:15.668Z,10.1
2022-11-07T17:12:53.397Z,9.1
2022-11-07T17:18:37.778Z,8.7
2022-11-07T17:24:18.685Z,9.2
2022-11-07T17:29:49.669Z,9.5
2022-11-07T17:35:18.068Z,10.4
2022-11-07T17:40:37.780Z,10.3
2022-11-07T17:46:15.713Z,10.1
2022-11-07T17:51:41.794Z,10
2022-11-07T17:57:18.604Z,10.5
2022-11-07T18:03:02.751Z,10.6
2022-11-07T18:08:38.347Z,10.4
2022-11-07T18:13:52.189Z,10.4
2022-11-07T18:19:47.988Z,10.2
2022-11-07T18:25:04.989Z,10.2
2022-11-07T18:30:35.760Z,10
2022-11-07T18:36:14.557Z,9.2
2022-11-07T18:41:39.091Z,8.8
2022-11-07T18:47:27.193Z,8.8
2022-11-07T18:53:02.048Z,9.3
2022-11-07T18:58:33.860Z,8.8
2022-11-07T19:03:49.407Z,8.5
2022-11-07T19:09:42.368Z,8.6
2022-11-07T19:14:53.482Z,8.4
2022-11-07T19:20:30.086Z,8.4
2022-11-07T19:26:10.165Z,7.9
2022-11-07T19:31:37.096Z,7.8
2022-11-07T19:37:09.114Z,8
2022-11-07T19:42:30.954Z,8.2
2022-11-07T19:48:13.387Z,8
2022-11-07T19:53:37.585Z,8.1
2022-11-07T19:59:09.120Z,8.8
2022-11-07T20:04:58.441Z,8.9
2022-11-07T20:10:23.727Z,9.1
2022-11-07T20:15:53.452Z,8.1
2022-11-07T20:21:38.213Z,7.9
2022-11-07T20:27:11.080Z,7.7
2022-11-07T20:32:24.718Z,7.3
2022-11-07T20:38:06.935Z,7.4
2022-11-07T20:43:32.078Z,7.8
2022-11-07T20:49:26.799Z,7.7
2022-11-07T20:54:59.964Z,7.4
2022-11-07T21:00:09.912Z,7.6
2022-11-07T21:05:38.075Z,7.1
2022-11-07T21:11:26.600Z,7
2022-11-07T21:16:56.951Z,7.1
2022-11-07T21:22:19.767Z,7
2022-11-07T21:27:54.326Z,6.9
2022-11-07T21:33:20.762Z,6.6
2022-11-07T21:38:52.960Z,6
2022-11-07T21:44:32.703Z,6
2022-11-07T21:50:38.224Z,6.3
2022-11-07T21:55:52.570Z,6.6
2022-11-07T22:01:24.667Z,6
2022-11-07T22:06:45.374Z,5.9
2022-11-07T22:12:16.910Z,6
2022-11-07T22:17:56.992Z,5.9
2022-11-07T22:23:31.664Z,6
2022-11-07T22:29:05.907Z,6.3
2022-11-07T22:34:24.881Z,6.3
2022-11-07T22:40:03.518Z,5.8
2022-11-07T22:45:19.872Z,5.4
2022-11-07T22:50:57.169Z,5
2022-11-07T22:56:29.245Z,5
2022-11-07T23:02:11.198Z,5.1
2022-11-07T23:07:50.449Z,4.9
2022-11-07T23:13:06.284Z,5.3
2022-11-07T23:18:42.657Z,5.4
2022-11-07T23:24:27.014Z,5.5
2022-11-07T23:30:03.890Z,5.5
2022-11-07T23:35:24.166Z,5.4
2022-11-07T23:40:51.734Z,5.3
2022-11-07T23:46:29.848Z,5.6
2022-11-07T23:52:13.709Z,5.6
2022-11-07T23:57:44.073Z,5.1
